Zakirovskiy Airport

Jump to: basic info | weather | comments

Related pages: nearby airports | nearby navaids

Basic information (top)

Location: lon 43.448002, lat 77.049599, elev 2,038 ft / 621 m msl
Status: small_airport

Weather (top)

Current conditions for Almaty Airport 6nm (11km) S (rec'd 2014/12/20 11:00Z):

UAAA 201100Z VRB01MPS 1000 R05L/2000N R05R/1000N FU SCT100 BKN200 M01/M07 Q1024 R88/81//60 TEMPO 0600 FU

Airport forecast for Almaty Airport 6nm (11km) S (rec'd 2014/12/20 06:18Z):

TAF TAF UAAA 200500Z 2006/2106 04005MPS 2000 BR FU NSC TXM01/2008Z TNM10/2101Z 
      TEMPO 2006/2008 1000 
      BECMG 2010/2011 16004MPS 1000 
      TEMPO 2010/2015 0300 FZFG FU 
      TEMPO 2015/2106 0200 FZFG VV001

Latest comments (top)

No comments yet for Zakirovskiy Airport

More... (top)

See also NOTAMs and nearby airports and navaids, or visit the Zakirovskiy Airport page at the main OurAirports website..